Orbital elements of COSMOS 249 DEB
| Launched | 19 October 1968 |
| Flight ended | – |
| Launch site | Tyuratam Missile and Space Center, Kazakhstan (Also known as Baikonur Cosmodrome) |
| Owner | Commonwealth of Independent States (former USSR) |
| NORAD ID | 3757 |
| Date fetched |
Epoch osculation |
Inc. [°] |
Ecc. | RA asc node [hr] |
Arg Peri. [°] |
Mean anom [°] |
Mean motion [rev/day] |
Abs. mag |
| Date fetched |
Epoch osculation |
Inc. [°] |
Ecc. | RA asc node [hr] |
Arg Peri. [°] |
Mean anom [°] |
Mean motion [rev/day] |
Abs. mag |
| 2026 May 05 17:57 | 2026 May 05 08:17:50 | 61.9739 | 0.03687 | 23.4088 | 86.2774 | 278.0360 | 14.50340 | – |
| 2026 May 04 17:57 | 2026 Apr 30 09:09:08 | 61.9747 | 0.03692 | 0.4745 | 84.6166 | 278.0360 | 14.50340 | – |
| 2026 May 03 17:57 | 2026 Apr 30 09:09:08 | 61.9747 | 0.03692 | 0.4745 | 84.6166 | 278.0360 | 14.50340 | – |
| 2026 May 02 17:57 | 2026 Apr 30 09:09:08 | 61.9747 | 0.03692 | 0.4745 | 84.6166 | 278.0360 | 14.50340 | – |
| 2026 May 01 17:56 | 2026 Apr 30 09:09:08 | 61.9747 | 0.03692 | 0.4745 | 84.6166 | 278.0360 | 14.50340 | – |
| 2026 Apr 30 17:56 | 2026 Apr 30 09:09:08 | 61.9747 | 0.03692 | 0.4745 | 84.6166 | 278.0360 | 14.50340 | – |
| 2026 Apr 29 17:57 | 2026 Apr 24 04:11:57 | 61.9740 | 0.03699 | 1.8063 | 82.5321 | 278.0360 | 14.50340 | – |
| 2026 Apr 28 17:56 | 2026 Apr 24 04:11:57 | 61.9740 | 0.03699 | 1.8063 | 82.5321 | 278.0360 | 14.50340 | – |
| 2026 Apr 27 17:58 | 2026 Apr 24 04:11:57 | 61.9740 | 0.03699 | 1.8063 | 82.5321 | 278.0360 | 14.50340 | – |
| 2026 Apr 26 17:58 | 2026 Apr 24 04:11:57 | 61.9740 | 0.03699 | 1.8063 | 82.5321 | 278.0360 | 14.50340 | – |
| 2026 Apr 25 17:58 | 2026 Apr 24 04:11:57 | 61.9740 | 0.03699 | 1.8063 | 82.5321 | 278.0360 | 14.50340 | – |
| 2026 Apr 24 17:59 | 2026 Apr 24 04:11:57 | 61.9740 | 0.03699 | 1.8063 | 82.5321 | 278.0360 | 14.50340 | – |
| 2026 Apr 23 17:57 | 2026 Apr 19 05:01:19 | 61.9740 | 0.03702 | 2.8716 | 80.8693 | 278.0360 | 14.50340 | – |
| 2026 Apr 22 17:57 | 2026 Apr 19 05:01:19 | 61.9740 | 0.03702 | 2.8716 | 80.8693 | 278.0360 | 14.50340 | – |
| 2026 Apr 21 17:57 | 2026 Apr 19 05:01:19 | 61.9740 | 0.03702 | 2.8716 | 80.8693 | 278.0360 | 14.50340 | – |
| 2026 Apr 20 17:57 | 2026 Apr 19 05:01:19 | 61.9740 | 0.03702 | 2.8716 | 80.8693 | 278.0360 | 14.50340 | – |
| 2026 Apr 19 17:58 | 2026 Apr 19 05:01:19 | 61.9740 | 0.03702 | 2.8716 | 80.8693 | 278.0360 | 14.50340 | – |
| 2026 Apr 18 17:56 | 2026 Apr 13 06:39:33 | 61.9722 | 0.03702 | 4.1439 | 78.8946 | 278.0360 | 14.50340 | – |
| 2026 Apr 16 17:57 | 2026 Apr 13 06:39:33 | 61.9722 | 0.03702 | 4.1439 | 78.8946 | 278.0360 | 14.50340 | – |
| 2026 Apr 14 17:57 | 2026 Apr 13 06:39:33 | 61.9722 | 0.03702 | 4.1439 | 78.8946 | 278.0360 | 14.50340 | – |
| 2026 Apr 13 17:57 | 2026 Apr 13 06:39:33 | 61.9722 | 0.03702 | 4.1439 | 78.8946 | 278.0360 | 14.50340 | – |
| 2026 Apr 12 17:57 | 2026 Apr 08 05:48:28 | 61.9723 | 0.03704 | 5.2239 | 77.2070 | 278.0360 | 14.50340 | – |
| 2026 Apr 11 17:57 | 2026 Apr 08 05:48:28 | 61.9723 | 0.03704 | 5.2239 | 77.2070 | 278.0360 | 14.50340 | – |
| 2026 Apr 10 17:58 | 2026 Apr 08 05:48:28 | 61.9723 | 0.03704 | 5.2239 | 77.2070 | 278.0360 | 14.50340 | – |
| 2026 Apr 09 18:01 | 2026 Apr 08 05:48:28 | 61.9723 | 0.03704 | 5.2239 | 77.2070 | 278.0360 | 14.50340 | – |
| 2026 Apr 08 17:57 | 2026 Apr 08 05:48:28 | 61.9723 | 0.03704 | 5.2239 | 77.2070 | 278.0360 | 14.50340 | – |